Time;durP1;ratioP1;P1;durP2;ratioP2;P2;SDS_P1;SDS_P2;PMS_P1;PMS_P2;Temp;Humidity;BMP_temperature;BMP_pressure;BME280_temperature;BME280_humidity;BME280_pressure;Samples;Min_cycle;Max_cycle;Signal;HPM_P1;HPM_P2
2022/10/07 00:01:12;;;;;;;4.07;2.83;;;14.20;99.90;;;;;;4842962;29;20216;-88
2022/10/07 00:03:38;;;;;;;6.17;3.00;;;14.20;99.90;;;;;;4843348;29;20189;-88
2022/10/07 00:06:16;;;;;;;5.27;2.57;;;14.20;99.90;;;;;;4861092;29;20236;-88
2022/10/07 00:08:44;;;;;;;4.80;2.83;;;14.20;99.90;;;;;;4861074;29;20183;-88
2022/10/07 00:11:22;;;;;;;7.23;3.07;;;14.20;99.90;;;;;;4858209;29;20212;-88
2022/10/07 00:13:51;;;;;;;4.70;2.73;;;14.10;99.90;;;;;;4843132;29;20185;-88
2022/10/07 00:16:23;;;;;;;6.03;3.37;;;14.10;99.90;;;;;;4846195;29;20275;-88
2022/10/07 00:18:50;;;;;;;5.73;3.17;;;14.00;99.90;;;;;;4857805;29;20600;-88
2022/10/07 00:21:17;;;;;;;4.97;3.00;;;13.90;99.90;;;;;;4860964;29;20216;-88
2022/10/07 00:23:45;;;;;;;7.40;3.70;;;13.90;99.90;;;;;;4858160;29;20184;-87
2022/10/07 00:26:15;;;;;;;5.07;3.20;;;13.80;99.90;;;;;;4858406;29;20223;-88
2022/10/07 00:28:41;;;;;;;5.70;3.30;;;13.80;99.90;;;;;;4843330;29;20240;-88
2022/10/07 00:31:28;;;;;;;7.30;3.30;;;13.80;99.90;;;;;;4858298;29;20216;-88
2022/10/07 00:33:55;;;;;;;6.27;3.23;;;13.80;99.90;;;;;;4858705;29;20645;-88
2022/10/07 00:36:24;;;;;;;7.17;3.40;;;13.70;99.90;;;;;;4859042;29;20188;-88
2022/10/07 00:38:58;;;;;;;5.37;2.80;;;13.80;99.90;;;;;;4861927;29;20180;-88
2022/10/07 00:41:28;;;;;;;3.87;2.63;;;13.70;99.90;;;;;;4862015;29;20208;-88
2022/10/07 00:43:54;;;;;;;4.50;3.27;;;13.70;99.90;;;;;;4876923;29;20195;-88
2022/10/07 00:46:34;;;;;;;6.80;3.47;;;13.70;99.90;;;;;;4860918;29;20286;-87
2022/10/07 00:49:05;;;;;;;5.43;3.13;;;13.70;99.90;;;;;;4860780;29;20262;-88
2022/10/07 00:51:33;;;;;;;5.70;3.37;;;13.60;99.90;;;;;;4860502;29;20224;-88
2022/10/07 00:54:03;;;;;;;5.43;3.17;;;13.70;99.90;;;;;;4875700;29;20188;-88
2022/10/07 00:56:30;;;;;;;5.83;3.23;;;13.70;99.90;;;;;;4860454;29;20279;-88
2022/10/07 00:58:58;;;;;;;6.60;3.13;;;13.70;99.90;;;;;;4860055;29;20212;-87
2022/10/07 01:01:25;;;;;;;6.77;3.17;;;13.70;99.90;;;;;;4860663;29;20218;-87
2022/10/07 01:03:52;;;;;;;7.83;3.03;;;13.70;99.90;;;;;;4860476;29;20192;-88
2022/10/07 01:06:18;;;;;;;5.37;3.50;;;13.80;99.90;;;;;;4860558;29;20203;-87
2022/10/07 01:08:46;;;;;;;6.50;3.07;;;13.80;99.90;;;;;;4860104;29;20198;-87
2022/10/07 01:11:34;;;;;;;6.30;3.47;;;13.70;99.90;;;;;;4861186;29;20401;-88
2022/10/07 01:14:12;;;;;;;5.70;3.23;;;13.70;99.90;;;;;;4876496;29;20188;-87
2022/10/07 01:16:50;;;;;;;6.30;3.20;;;13.70;99.90;;;;;;4841882;29;20201;-88
2022/10/07 01:19:50;;;;;;;6.23;3.17;;;13.60;99.90;;;;;;4851389;29;20252;-88
2022/10/07 01:22:31;;;;;;;5.63;3.03;;;13.60;99.90;;;;;;4875566;29;20204;-87
2022/10/07 01:25:11;;;;;;;7.10;3.20;;;13.50;99.90;;;;;;4858385;29;20235;-87
2022/10/07 01:27:42;;;;;;;5.47;3.07;;;13.50;99.90;;;;;;4859978;29;20302;-88
2022/10/07 01:30:09;;;;;;;5.33;3.00;;;13.50;99.90;;;;;;4875435;29;20184;-88
2022/10/07 01:32:37;;;;;;;7.30;3.57;;;13.50;99.90;;;;;;4860346;29;20218;-88
2022/10/07 01:35:26;;;;;;;7.17;3.10;;;13.40;99.90;;;;;;4859862;29;20176;-88
2022/10/07 01:37:55;;;;;;;8.90;3.10;;;13.40;99.90;;;;;;4860097;29;20640;-87
2022/10/07 01:40:26;;;;;;;7.33;3.27;;;13.40;99.90;;;;;;4856912;29;20188;-88
2022/10/07 01:42:54;;;;;;;4.97;2.97;;;13.40;99.90;;;;;;4842218;29;20197;-88
2022/10/07 01:45:23;;;;;;;5.47;3.03;;;13.40;99.90;;;;;;4848843;29;20268;-88
2022/10/07 01:47:50;;;;;;;4.50;3.30;;;13.30;99.90;;;;;;4856948;29;20192;-88
2022/10/07 01:50:21;;;;;;;4.80;2.87;;;13.30;99.90;;;;;;4858853;29;20184;-87
2022/10/07 01:52:51;;;;;;;5.77;2.80;;;13.20;99.90;;;;;;4860088;29;20195;-88
2022/10/07 01:55:40;;;;;;;5.77;2.77;;;13.20;99.90;;;;;;4860166;29;20189;-87
2022/10/07 01:58:40;;;;;;;6.33;2.63;;;13.20;99.90;;;;;;4875404;29;20215;-88
2022/10/07 02:01:17;;;;;;;4.07;2.70;;;13.10;99.90;;;;;;4851582;29;20271;-88
2022/10/07 02:04:18;;;;;;;4.37;3.10;;;13.00;99.90;;;;;;4859867;29;20191;-88
2022/10/07 02:07:11;;;;;;;6.80;3.43;;;13.00;99.90;;;;;;4860356;29;20247;-88
2022/10/07 02:09:50;;;;;;;7.33;3.40;;;12.90;99.90;;;;;;4857783;29;20180;-88
2022/10/07 02:12:45;;;;;;;5.80;2.93;;;12.90;99.90;;;;;;4879025;29;20207;-87
2022/10/07 02:15:16;;;;;;;4.00;3.00;;;12.80;99.90;;;;;;4853118;29;20264;-88
2022/10/07 02:17:51;;;;;;;5.87;3.37;;;12.80;99.90;;;;;;4844918;29;20193;-88
2022/10/07 02:20:20;;;;;;;4.97;3.20;;;12.80;99.90;;;;;;4861649;29;20192;-88
2022/10/07 02:22:47;;;;;;;5.50;3.10;;;12.80;99.90;;;;;;4860382;29;20187;-88
2022/10/07 02:25:17;;;;;;;11.37;3.57;;;12.90;99.90;;;;;;4860159;29;20199;-88
2022/10/07 02:27:45;;;;;;;9.00;3.50;;;12.90;99.90;;;;;;4863038;29;20215;-88
2022/10/07 02:30:14;;;;;;;6.60;3.30;;;12.90;99.90;;;;;;4862652;29;20195;-87
2022/10/07 02:32:52;;;;;;;5.47;3.17;;;12.90;99.90;;;;;;4863794;29;20188;-87
2022/10/07 02:35:37;;;;;;;6.53;3.27;;;13.00;99.90;;;;;;4859738;29;20247;-87
2022/10/07 02:38:10;;;;;;;8.20;3.43;;;13.00;99.90;;;;;;4844504;29;20244;-88
2022/10/07 02:40:47;;;;;;;5.37;3.33;;;13.00;99.90;;;;;;4857852;29;20205;-87
2022/10/07 02:43:13;;;;;;;4.87;3.00;;;12.90;99.90;;;;;;4844700;29;20184;-87
2022/10/07 02:45:53;;;;;;;4.83;2.90;;;12.90;99.90;;;;;;4857700;29;20188;-87
2022/10/07 02:48:26;;;;;;;4.57;3.10;;;12.90;99.90;;;;;;4862650;29;20278;-88
2022/10/07 02:50:55;;;;;;;6.00;3.47;;;12.90;99.90;;;;;;4862529;29;20215;-88
2022/10/07 02:53:27;;;;;;;6.40;3.50;;;12.90;99.90;;;;;;4863084;29;20712;-88
2022/10/07 02:55:56;;;;;;;6.60;3.50;;;12.90;99.90;;;;;;4859650;29;20275;-88
2022/10/07 02:58:25;;;;;;;7.27;3.60;;;12.80;99.90;;;;;;4844449;29;20189;-87
2022/10/07 03:00:58;;;;;;;5.40;3.30;;;12.80;99.90;;;;;;4859323;29;20282;-87
2022/10/07 03:03:25;;;;;;;7.20;3.17;;;12.70;99.90;;;;;;4862134;29;20194;-87
2022/10/07 03:05:58;;;;;;;6.17;3.27;;;12.80;99.90;;;;;;4863411;29;20675;-87
2022/10/07 03:08:25;;;;;;;7.90;3.47;;;12.70;99.90;;;;;;4877733;29;20192;-87
2022/10/07 03:10:52;;;;;;;6.47;3.40;;;12.70;99.90;;;;;;4862393;29;20306;-87
2022/10/07 03:13:18;;;;;;;5.30;3.00;;;12.60;99.90;;;;;;4862083;29;20196;-87
2022/10/07 03:15:50;;;;;;;4.80;3.30;;;12.60;99.90;;;;;;4862536;29;20278;-88
2022/10/07 03:18:27;;;;;;;4.23;2.97;;;12.60;99.90;;;;;;4862410;29;20562;-87
2022/10/07 03:21:15;;;;;;;7.50;2.87;;;12.60;99.90;;;;;;4865146;29;20231;-87
2022/10/07 03:23:42;;;;;;;6.13;3.13;;;12.60;99.90;;;;;;4862375;29;20700;-88
2022/10/07 03:26:09;;;;;;;7.60;3.13;;;12.60;99.90;;;;;;4862346;29;20235;-88
2022/10/07 03:28:36;;;;;;;5.40;3.33;;;12.60;99.90;;;;;;4861458;29;20184;-87
2022/10/07 03:31:07;;;;;;;5.60;3.20;;;12.50;99.90;;;;;;4862118;29;20199;-87
2022/10/07 03:33:36;;;;;;;4.07;2.73;;;12.50;99.90;;;;;;4862366;29;20194;-87
2022/10/07 03:36:07;;;;;;;4.07;3.20;;;12.50;99.90;;;;;;4859041;29;20198;-87
2022/10/07 03:38:34;;;;;;;3.70;2.87;;;12.50;99.90;;;;;;4859382;29;20282;-88
2022/10/07 03:41:02;;;;;;;5.20;3.13;;;12.50;99.90;;;;;;4861817;29;20704;-87
2022/10/07 03:43:29;;;;;;;5.37;2.80;;;12.50;99.90;;;;;;4861970;29;20188;-87
2022/10/07 03:45:57;;;;;;;4.40;2.90;;;12.50;99.90;;;;;;4861916;29;20295;-88
2022/10/07 03:48:24;;;;;;;5.87;3.13;;;12.50;99.90;;;;;;4861812;29;20247;-87
2022/10/07 03:50:51;;;;;;;6.37;2.80;;;12.50;99.90;;;;;;4861758;29;20265;-87
2022/10/07 03:53:19;;;;;;;7.43;3.13;;;12.50;99.90;;;;;;4862397;29;20183;-87
2022/10/07 03:55:45;;;;;;;4.47;3.10;;;12.50;99.90;;;;;;4877525;29;20191;-88
2022/10/07 03:58:11;;;;;;;4.73;3.00;;;12.60;99.90;;;;;;4862666;29;20263;-87
2022/10/07 04:00:39;;;;;;;5.20;3.10;;;12.60;99.90;;;;;;4861927;29;20314;-87
2022/10/07 04:03:06;;;;;;;6.87;3.27;;;12.60;99.90;;;;;;4861868;29;20270;-88
2022/10/07 04:05:34;;;;;;;5.17;3.20;;;12.60;99.90;;;;;;4862655;29;20184;-87
2022/10/07 04:08:00;;;;;;;6.00;3.33;;;12.60;99.90;;;;;;4861655;29;20194;-87
2022/10/07 04:10:26;;;;;;;4.87;3.27;;;12.50;99.90;;;;;;4860576;29;20180;-88
2022/10/07 04:12:52;;;;;;;8.77;3.77;;;12.60;99.90;;;;;;4858884;29;20176;-88
2022/10/07 04:15:20;;;;;;;10.23;4.23;;;12.50;99.90;;;;;;4861608;29;20237;-88
2022/10/07 04:17:46;;;;;;;10.70;3.80;;;12.50;99.90;;;;;;4860980;29;20233;-88
2022/10/07 04:20:25;;;;;;;8.17;3.73;;;12.50;99.90;;;;;;4877186;29;20181;-87
2022/10/07 04:22:52;;;;;;;6.50;3.47;;;12.50;99.90;;;;;;4845466;29;20215;-87
2022/10/07 04:25:33;;;;;;;6.73;3.23;;;12.50;99.90;;;;;;4852951;29;20211;-87
2022/10/07 04:28:13;;;;;;;6.80;3.70;;;12.50;99.90;;;;;;4863229;29;20180;-87
2022/10/07 04:30:42;;;;;;;7.83;4.43;;;12.50;99.90;;;;;;4863090;29;20256;-87
2022/10/07 04:33:10;;;;;;;6.97;4.80;;;12.50;99.90;;;;;;4863215;29;20194;-88
2022/10/07 04:35:37;;;;;;;5.87;4.10;;;12.40;99.90;;;;;;4863421;29;20179;-88
2022/10/07 04:38:07;;;;;;;6.60;4.13;;;12.40;99.90;;;;;;4862782;29;20188;-88
2022/10/07 04:40:44;;;;;;;6.43;3.80;;;12.40;99.90;;;;;;4863108;29;20190;-88
2022/10/07 04:43:19;;;;;;;10.93;4.50;;;12.40;99.90;;;;;;4863464;29;20262;-88
2022/10/07 04:45:59;;;;;;;5.33;3.20;;;12.40;99.90;;;;;;4863478;29;20211;-87
2022/10/07 04:48:26;;;;;;;6.87;3.87;;;12.40;99.90;;;;;;4878623;29;20187;-88
2022/10/07 04:50:52;;;;;;;7.60;4.00;;;12.40;99.90;;;;;;4863186;29;20214;-88
2022/10/07 04:53:21;;;;;;;6.20;3.67;;;12.40;99.90;;;;;;4859649;29;20185;-89
2022/10/07 04:55:50;;;;;;;7.30;3.90;;;12.30;99.90;;;;;;4861389;29;20194;-88
2022/10/07 04:58:18;;;;;;;7.83;3.70;;;12.30;99.90;;;;;;4862794;29;20191;-88
2022/10/07 05:01:05;;;;;;;7.57;3.87;;;12.30;99.90;;;;;;4862270;29;20218;-88
2022/10/07 05:03:35;;;;;;;7.07;3.30;;;12.30;99.90;;;;;;4862565;29;20187;-88
2022/10/07 05:06:05;;;;;;;6.70;3.40;;;12.20;99.90;;;;;;4863223;29;20217;-88
2022/10/07 05:08:31;;;;;;;5.90;3.67;;;12.20;99.90;;;;;;4863025;29;20179;-88
2022/10/07 05:11:00;;;;;;;5.40;3.60;;;12.10;99.90;;;;;;4867234;29;20198;-88
2022/10/07 05:13:30;;;;;;;5.50;3.30;;;12.10;99.90;;;;;;4875400;29;20180;-88
2022/10/07 05:16:00;;;;;;;7.43;3.80;;;12.20;99.90;;;;;;4864041;29;20183;-88
2022/10/07 05:18:28;;;;;;;6.10;3.70;;;12.10;99.90;;;;;;4862606;29;20282;-88
2022/10/07 05:20:57;;;;;;;6.17;4.00;;;12.10;99.90;;;;;;4863118;29;20226;-88
2022/10/07 05:23:30;;;;;;;5.23;3.40;;;12.10;99.90;;;;;;4863225;29;20199;-88
2022/10/07 05:26:00;;;;;;;6.03;3.70;;;12.10;99.90;;;;;;4862950;29;20211;-87
2022/10/07 05:28:28;;;;;;;7.47;3.87;;;12.10;99.90;;;;;;4862883;29;20194;-88
2022/10/07 05:31:06;;;;;;;8.10;4.87;;;12.10;99.90;;;;;;4859349;29;20237;-87
2022/10/07 05:33:34;;;;;;;5.87;4.77;;;12.10;99.90;;;;;;4844370;29;20178;-88
2022/10/07 05:36:00;;;;;;;6.30;4.60;;;12.10;99.90;;;;;;4844396;29;20222;-87
2022/10/07 05:38:27;;;;;;;7.10;4.57;;;12.10;99.90;;;;;;4846568;29;20195;-87
2022/10/07 05:40:57;;;;;;;9.60;4.60;;;12.10;99.90;;;;;;4853282;29;20295;-88
2022/10/07 05:43:24;;;;;;;5.27;3.97;;;12.10;99.90;;;;;;4863522;29;20255;-88
2022/10/07 05:46:02;;;;;;;5.63;4.03;;;12.00;99.90;;;;;;4865610;29;20210;-88
2022/10/07 05:48:33;;;;;;;8.90;4.37;;;12.00;99.90;;;;;;4866522;29;20205;-87
2022/10/07 05:51:00;;;;;;;5.47;4.10;;;12.00;99.90;;;;;;4865752;29;20219;-88
2022/10/07 05:53:28;;;;;;;6.87;4.10;;;12.00;99.90;;;;;;4881036;29;20182;-88
2022/10/07 05:55:55;;;;;;;5.00;3.90;;;12.00;99.90;;;;;;4866395;29;20183;-88
2022/10/07 05:58:22;;;;;;;8.67;4.37;;;11.90;99.90;;;;;;4865881;29;20187;-88
2022/10/07 06:00:54;;;;;;;7.43;4.50;;;11.90;99.90;;;;;;4866006;29;20206;-88
2022/10/07 06:03:26;;;;;;;7.80;3.93;;;11.90;99.90;;;;;;4865730;29;20184;-88
2022/10/07 06:06:03;;;;;;;5.07;3.73;;;11.90;99.90;;;;;;4865949;29;20216;-88
2022/10/07 06:08:29;;;;;;;7.80;3.70;;;11.90;99.90;;;;;;4881411;29;20243;-88
2022/10/07 06:13:49;;;;;;;4.50;3.33;;;11.90;99.90;;;;;;4878184;29;20236;-88
2022/10/07 06:16:16;;;;;;;7.53;3.90;;;11.90;99.90;;;;;;4864269;29;20285;-88
2022/10/07 06:18:41;;;;;;;4.70;3.13;;;11.90;99.90;;;;;;4864916;29;20282;-88
2022/10/07 06:21:08;;;;;;;5.40;3.80;;;12.00;99.90;;;;;;4861871;29;20215;-88
2022/10/07 06:23:34;;;;;;;6.70;3.60;;;12.00;99.90;;;;;;4847135;29;20184;-89
2022/10/07 06:26:04;;;;;;;8.70;3.57;;;12.10;99.90;;;;;;4863837;29;20215;-89
2022/10/07 06:28:33;;;;;;;4.77;3.53;;;12.10;99.90;;;;;;4865633;29;20181;-89
2022/10/07 06:31:04;;;;;;;4.57;3.17;;;12.10;99.90;;;;;;4866063;29;20275;-89
2022/10/07 06:33:30;;;;;;;4.87;3.90;;;12.20;99.90;;;;;;4865350;29;20175;-89
2022/10/07 06:35:56;;;;;;;7.23;3.97;;;12.20;99.90;;;;;;4865094;29;20214;-79
2022/10/07 06:38:23;;;;;;;4.57;3.70;;;12.30;99.90;;;;;;4880788;29;20218;-89
2022/10/07 06:41:08;;;;;;;7.40;4.00;;;12.40;99.90;;;;;;4865193;29;20274;-88
2022/10/07 06:43:34;;;;;;;6.43;3.70;;;12.40;99.90;;;;;;4865350;29;20187;-89
2022/10/07 06:46:06;;;;;;;6.50;3.57;;;12.40;99.90;;;;;;4875602;29;20221;-89
2022/10/07 06:48:40;;;;;;;7.47;3.40;;;12.50;99.90;;;;;;4864687;29;20342;-89
2022/10/07 06:51:07;;;;;;;7.27;3.87;;;12.50;99.90;;;;;;4864138;29;20203;-89
2022/10/07 06:53:33;;;;;;;10.07;3.40;;;12.50;99.90;;;;;;4864871;29;20270;-89
2022/10/07 06:56:01;;;;;;;9.63;3.80;;;12.50;99.90;;;;;;4865862;29;20198;-87
2022/10/07 06:58:30;;;;;;;7.00;3.70;;;12.60;99.90;;;;;;4865009;29;20230;-89
2022/10/07 07:00:58;;;;;;;5.27;3.13;;;12.60;99.90;;;;;;4865156;29;20211;-89
2022/10/07 07:03:25;;;;;;;6.13;3.50;;;12.60;99.90;;;;;;4865048;29;20191;-89
2022/10/07 07:05:53;;;;;;;4.60;3.50;;;12.60;99.90;;;;;;4865286;29;20211;-89
2022/10/07 07:08:24;;;;;;;6.63;3.50;;;12.70;99.90;;;;;;4865216;29;20217;-89
2022/10/07 07:14:04;;;;;;;5.73;3.73;;;12.80;99.90;;;;;;4879995;29;20216;-88
2022/10/07 07:16:32;;;;;;;7.77;4.10;;;12.80;99.90;;;;;;4864425;29;20183;-88
2022/10/07 07:19:02;;;;;;;9.87;3.67;;;12.80;99.90;;;;;;4863882;29;20211;-89
2022/10/07 07:21:29;;;;;;;5.77;3.87;;;12.80;99.90;;;;;;4863607;29;20204;-89
2022/10/07 07:23:57;;;;;;;7.80;4.17;;;12.80;99.90;;;;;;4862569;29;20188;-90
2022/10/07 07:26:29;;;;;;;7.47;4.00;;;12.80;99.90;;;;;;4862812;29;20297;-89
2022/10/07 07:28:58;;;;;;;5.13;3.90;;;12.90;99.90;;;;;;4864335;29;20180;-89
2022/10/07 07:31:44;;;;;;;7.40;3.73;;;13.00;99.90;;;;;;4863828;29;20199;-89
2022/10/07 07:34:13;;;;;;;6.80;4.00;;;13.20;99.90;;;;;;4864629;29;20200;-90
2022/10/07 07:36:45;;;;;;;8.30;4.23;;;13.20;99.90;;;;;;4898289;29;20195;-89
2022/10/07 07:39:16;;;;;;;5.97;3.83;;;13.30;99.90;;;;;;4883343;29;20206;-89
2022/10/07 07:41:46;;;;;;;7.70;4.13;;;13.40;99.90;;;;;;4879435;29;20239;-88
2022/10/07 07:44:17;;;;;;;7.60;4.67;;;13.60;99.90;;;;;;4864494;29;20201;-89
2022/10/07 07:46:54;;;;;;;11.10;4.50;;;13.60;99.90;;;;;;4879246;29;20208;-89
2022/10/07 07:49:23;;;;;;;10.80;4.67;;;13.70;99.90;;;;;;4860908;29;20201;-89
2022/10/07 07:51:52;;;;;;;6.77;4.23;;;13.80;99.90;;;;;;4848735;29;20199;-89
2022/10/07 07:54:26;;;;;;;7.07;4.40;;;13.90;99.90;;;;;;4871275;29;20184;-89
2022/10/07 07:56:56;;;;;;;6.43;4.37;;;14.00;99.90;;;;;;4863947;29;20188;-86
2022/10/07 07:59:24;;;;;;;6.73;4.13;;;14.10;99.90;;;;;;4864054;29;20202;-89
2022/10/07 08:02:19;;;;;;;7.67;4.07;;;14.20;99.90;;;;;;4870307;29;20231;-89
2022/10/07 08:04:50;;;;;;;8.57;4.50;;;14.30;99.90;;;;;;4879189;29;20172;-89
2022/10/07 08:07:18;;;;;;;9.00;4.50;;;14.40;99.90;;;;;;4863809;29;20216;-90
2022/10/07 08:09:47;;;;;;;10.10;3.83;;;14.50;99.90;;;;;;4879433;29;20184;-89
2022/10/07 08:12:39;;;;;;;9.23;4.03;;;14.60;99.90;;;;;;4879367;29;20200;-89
2022/10/07 08:15:09;;;;;;;10.83;4.57;;;14.70;99.90;;;;;;4863746;29;20276;-89
2022/10/07 08:17:49;;;;;;;10.70;4.80;;;14.80;99.90;;;;;;4863485;29;20191;-90
2022/10/07 08:20:35;;;;;;;6.83;4.60;;;14.90;99.90;;;;;;4863797;29;20202;-90
2022/10/07 08:23:10;;;;;;;7.03;4.93;;;15.00;99.90;;;;;;4879145;29;20184;-89
2022/10/07 08:25:36;;;;;;;11.40;5.10;;;15.10;99.90;;;;;;4863395;29;20188;-90
2022/10/07 08:28:06;;;;;;;5.57;4.00;;;15.30;99.90;;;;;;4863531;29;20191;-90
2022/10/07 08:30:32;;;;;;;11.33;4.13;;;15.40;99.90;;;;;;4863398;29;20184;-89
2022/10/07 08:32:59;;;;;;;6.87;4.57;;;15.60;99.90;;;;;;4863725;29;20202;-90
2022/10/07 08:35:25;;;;;;;8.80;4.30;;;15.70;99.90;;;;;;4863413;29;20228;-90
2022/10/07 08:37:51;;;;;;;8.07;4.80;;;15.80;99.90;;;;;;4863213;29;20215;-90
2022/10/07 08:40:17;;;;;;;7.87;4.63;;;15.90;99.90;;;;;;4864576;29;20231;-90
2022/10/07 08:42:45;;;;;;;7.70;4.37;;;15.90;99.90;;;;;;4880524;29;20195;-90
2022/10/07 08:45:19;;;;;;;6.27;4.70;;;16.00;99.90;;;;;;4863344;29;20192;-90
2022/10/07 08:47:48;;;;;;;6.40;4.60;;;16.10;99.90;;;;;;4863066;29;20255;-90
2022/10/07 08:50:29;;;;;;;7.60;5.57;;;16.30;99.90;;;;;;4863394;29;20194;-90
2022/10/07 08:52:58;;;;;;;7.73;5.10;;;16.40;99.90;;;;;;4863200;29;20184;-90
2022/10/07 08:55:39;;;;;;;8.37;4.97;;;16.50;99.90;;;;;;4863207;29;20194;-90
2022/10/07 08:58:46;;;;;;;5.87;4.67;;;16.60;99.90;;;;;;4862560;29;20191;-90
2022/10/07 09:01:47;;;;;;;11.57;6.05;;;16.60;99.90;;;;;;4862739;29;20210;-90
2022/10/07 09:04:27;;;;;;;10.63;6.80;;;16.70;99.90;;;;;;4860147;29;20256;-90
2022/10/07 09:07:07;;;;;;;7.80;5.82;;;16.80;99.90;;;;;;4844153;29;20212;-90
2022/10/07 09:09:54;;;;;;;7.60;4.97;;;16.90;99.90;;;;;;4846730;29;20176;-92
2022/10/07 09:12:41;;;;;;;5.53;4.88;;;16.90;99.90;;;;;;4862226;29;20212;-89
2022/10/07 09:15:57;;;;;;;8.75;4.75;;;16.90;99.90;;;;;;4863084;29;20271;-90
2022/10/07 09:18:32;;;;;;;7.13;5.07;;;16.90;99.90;;;;;;4877186;29;20203;-85
2022/10/07 09:21:01;;;;;;;8.75;4.60;;;16.90;99.90;;;;;;4875248;29;20310;-90
2022/10/07 09:23:32;;;;;;;7.95;5.00;;;16.90;99.90;;;;;;4862696;29;20192;-90
2022/10/07 09:25:59;;;;;;;7.05;5.05;;;16.90;99.90;;;;;;4863010;29;20215;-90
2022/10/07 09:28:30;;;;;;;8.63;5.45;;;16.90;99.90;;;;;;4860902;29;20230;-90
2022/10/07 09:31:01;;;;;;;6.20;5.20;;;17.00;99.90;;;;;;4862974;29;20211;-90
2022/10/07 09:33:28;;;;;;;10.00;6.35;;;17.10;99.90;;;;;;4874925;29;20191;-90
2022/10/07 09:36:06;;;;;;;11.85;6.50;;;16.90;99.90;;;;;;4878147;29;20184;-90
2022/10/07 09:38:32;;;;;;;8.10;5.43;;;17.00;99.90;;;;;;4862345;29;20191;-90
2022/10/07 09:41:34;;;;;;;7.07;5.20;;;17.10;99.90;;;;;;4862507;29;20196;-89
2022/10/07 09:44:05;;;;;;;8.73;5.72;;;17.20;99.90;;;;;;4825418;29;20196;-90
2022/10/07 09:46:45;;;;;;;10.57;5.82;;;17.40;99.90;;;;;;4854805;29;20211;-90
2022/10/07 09:49:26;;;;;;;9.20;6.30;;;17.40;99.90;;;;;;4878896;29;20195;-90
2022/10/07 09:52:01;;;;;;;8.25;6.07;;;17.50;99.90;;;;;;4865244;29;20200;-90
2022/10/07 09:54:30;;;;;;;11.70;6.72;;;17.40;99.90;;;;;;4862794;29;20179;-90
2022/10/07 09:56:58;;;;;;;7.55;5.60;;;17.50;99.90;;;;;;4862562;29;20336;-90
2022/10/07 09:59:27;;;;;;;8.63;5.80;;;17.50;99.90;;;;;;4862800;29;20192;-90
2022/10/07 10:02:14;;;;;;;8.90;6.10;;;17.50;99.90;;;;;;4864780;29;20212;-78
2022/10/07 10:04:56;;;;;;;7.53;5.63;;;17.50;99.90;;;;;;4860964;29;20203;-90
2022/10/07 10:07:27;;;;;;;6.50;5.35;;;17.60;99.90;;;;;;4862254;29;20208;-89
2022/10/07 10:09:58;;;;;;;8.75;5.20;;;17.60;99.90;;;;;;4862177;29;20188;-90
2022/10/07 10:12:29;;;;;;;8.38;5.70;;;17.60;99.90;;;;;;4861588;29;20214;-90
2022/10/07 10:14:59;;;;;;;7.30;5.38;;;17.60;99.90;;;;;;4862305;29;20271;-89
2022/10/07 10:17:39;;;;;;;6.32;4.85;;;17.60;99.90;;;;;;4862076;29;20267;-90
2022/10/07 10:20:31;;;;;;;6.57;5.55;;;17.60;99.90;;;;;;4861848;29;20204;-90
2022/10/07 10:23:00;;;;;;;7.75;5.13;;;17.70;99.90;;;;;;4862416;29;20188;-90
2022/10/07 10:28:53;;;;;;;6.63;4.75;;;17.70;99.90;;;;;;4893302;29;20204;-90
2022/10/07 10:31:44;;;;;;;8.23;5.80;;;17.80;99.90;;;;;;4865630;29;20290;-90
2022/10/07 10:34:42;;;;;;;8.73;5.15;;;17.80;99.90;;;;;;4865399;29;20183;-90
2022/10/07 10:37:17;;;;;;;5.47;4.63;;;17.90;99.90;;;;;;4861313;29;20245;-90
2022/10/07 10:40:01;;;;;;;7.95;6.07;;;17.80;99.90;;;;;;4859731;29;20222;-90
2022/10/07 10:42:40;;;;;;;7.10;5.82;;;17.90;99.90;;;;;;4865412;29;20208;-90
2022/10/07 10:45:18;;;;;;;7.10;5.40;;;17.90;99.90;;;;;;4880717;29;20196;-90
2022/10/07 10:48:06;;;;;;;7.25;4.93;;;17.90;99.90;;;;;;4865038;29;20211;-90
2022/10/07 10:50:56;;;;;;;7.30;5.07;;;17.90;99.90;;;;;;4864810;29;20186;-90
2022/10/07 10:53:30;;;;;;;7.22;5.45;;;17.90;99.90;;;;;;4865312;29;20180;-90
2022/10/07 10:56:06;;;;;;;8.73;5.82;;;17.90;99.90;;;;;;4880609;29;20175;-90
2022/10/07 10:58:57;;;;;;;7.65;5.15;;;18.00;99.90;;;;;;4864867;29;20187;-90
2022/10/07 11:01:41;;;;;;;7.60;5.43;;;18.00;99.90;;;;;;4864456;29;20239;-90
2022/10/07 11:04:29;;;;;;;6.45;5.07;;;18.10;99.90;;;;;;4864316;29;20648;-90
2022/10/07 11:07:03;;;;;;;9.20;5.80;;;18.10;99.90;;;;;;4864809;29;20216;-90
2022/10/07 11:09:43;;;;;;;5.70;4.60;;;18.20;99.90;;;;;;4862448;29;20195;-90
2022/10/07 11:12:31;;;;;;;7.45;5.63;;;18.20;99.90;;;;;;4864868;29;20211;-90
2022/10/07 11:15:05;;;;;;;5.97;4.85;;;18.30;99.90;;;;;;4865093;29;20187;-91
2022/10/07 11:17:48;;;;;;;8.40;6.40;;;18.30;99.90;;;;;;4856300;29;20176;-90
2022/10/07 11:20:34;;;;;;;6.05;5.45;;;18.30;99.90;;;;;;4864751;29;20199;-90
2022/10/07 11:23:21;;;;;;;6.32;5.72;;;18.30;99.90;;;;;;4864383;29;20240;-90
2022/10/07 11:26:26;;;;;;;8.50;5.78;;;18.30;99.90;;;;;;4863841;29;20240;-91
2022/10/07 11:29:19;;;;;;;6.80;5.57;;;18.40;99.90;;;;;;4861378;29;20199;-90
2022/10/07 11:31:55;;;;;;;7.95;5.82;;;18.40;99.90;;;;;;4864585;29;20212;-90
2022/10/07 11:34:57;;;;;;;8.27;5.88;;;18.30;99.90;;;;;;4864651;29;20175;-90
2022/10/07 11:37:47;;;;;;;6.90;5.45;;;18.30;99.90;;;;;;4846154;29;20545;-90
2022/10/07 11:40:15;;;;;;;7.40;5.97;;;18.40;99.90;;;;;;4863039;29;20185;-90
2022/10/07 11:42:44;;;;;;;8.15;6.10;;;18.40;99.90;;;;;;4853392;29;20212;-90
2022/10/07 11:45:16;;;;;;;5.55;5.05;;;18.40;99.90;;;;;;4864515;29;20218;-90
2022/10/07 11:47:48;;;;;;;6.82;5.45;;;18.50;99.90;;;;;;4863974;29;20265;-90
2022/10/07 11:50:30;;;;;;;7.32;6.10;;;18.40;99.90;;;;;;4877485;29;20203;-91
2022/10/07 11:53:06;;;;;;;7.68;6.28;;;18.50;99.90;;;;;;4845921;29;20230;-90
2022/10/07 11:56:13;;;;;;;8.43;5.90;;;18.40;99.90;;;;;;4864116;29;20656;-90
2022/10/07 11:58:39;;;;;;;9.48;6.85;;;18.40;99.90;;;;;;4863994;29;20697;-91
2022/10/07 12:01:24;;;;;;;9.75;5.57;;;18.30;99.90;;;;;;4876805;29;20208;-90
2022/10/07 12:04:21;;;;;;;6.70;5.57;;;18.30;99.90;;;;;;4863225;29;20179;-91
2022/10/07 12:07:24;;;;;;;6.88;5.45;;;18.40;99.90;;;;;;4862949;29;20216;-91
2022/10/07 12:10:02;;;;;;;6.88;5.10;;;18.40;99.90;;;;;;4863877;29;20184;-90
2022/10/07 12:12:43;;;;;;;6.05;5.30;;;18.50;99.90;;;;;;4862902;29;20267;-89
2022/10/07 12:15:31;;;;;;;6.70;4.85;;;18.50;99.90;;;;;;4853678;29;20280;-88
2022/10/07 12:18:03;;;;;;;7.45;5.90;;;18.60;99.90;;;;;;4862967;29;20199;-88
2022/10/07 12:20:43;;;;;;;5.22;4.60;;;18.60;99.90;;;;;;4858803;29;20243;-89
2022/10/07 12:23:19;;;;;;;9.57;5.50;;;18.60;99.90;;;;;;4861767;29;20260;-88
2022/10/07 12:25:52;;;;;;;7.93;6.13;;;18.50;99.90;;;;;;4863264;29;20187;-89
2022/10/07 12:28:39;;;;;;;6.85;6.15;;;18.50;99.90;;;;;;4862901;29;20279;-89
2022/10/07 12:31:14;;;;;;;10.43;6.28;;;18.50;99.90;;;;;;4863512;29;20231;-88
2022/10/07 12:33:43;;;;;;;8.02;6.30;;;18.50;99.90;;;;;;4863058;29;20175;-88
2022/10/07 12:36:21;;;;;;;9.98;6.70;;;18.50;99.90;;;;;;4863342;29;20184;-88
2022/10/07 12:38:58;;;;;;;9.50;6.80;;;18.50;99.90;;;;;;4863133;29;20184;-89
2022/10/07 12:41:29;;;;;;;8.70;6.47;;;18.50;99.90;;;;;;4863202;29;20684;-88
2022/10/07 12:44:07;;;;;;;6.93;5.55;;;18.60;99.90;;;;;;4863547;29;20191;-88
2022/10/07 12:46:36;;;;;;;9.10;7.13;;;18.90;99.90;;;;;;4844280;29;20295;-88
2022/10/07 12:52:48;;;;;;;8.68;6.60;;;19.60;99.90;;;;;;4878079;29;20290;-77
2022/10/07 12:55:19;;;;;;;9.93;6.88;;;19.90;99.90;;;;;;4878054;29;20195;-77
2022/10/07 12:57:54;;;;;;;10.32;6.72;;;19.90;99.90;;;;;;4862156;29;20259;-88
2022/10/07 13:00:23;;;;;;;8.98;6.45;;;20.10;99.90;;;;;;4845595;29;20274;-88
2022/10/07 13:03:07;;;;;;;8.07;6.78;;;20.10;99.90;;;;;;4875253;29;20271;-88
2022/10/07 13:06:07;;;;;;;9.88;6.75;;;20.30;99.90;;;;;;4859598;29;20252;-88
2022/10/07 13:09:12;;;;;;;7.25;5.40;;;20.30;99.90;;;;;;4855259;29;20212;-88
2022/10/07 13:12:05;;;;;;;8.05;5.60;;;20.50;99.90;;;;;;4862815;29;20255;-88
2022/10/07 13:15:00;;;;;;;7.40;5.40;;;20.60;99.90;;;;;;4858813;29;20271;-88
2022/10/07 13:17:44;;;;;;;6.43;5.82;;;20.70;99.90;;;;;;4843993;29;20204;-88
2022/10/07 13:20:46;;;;;;;6.82;5.60;;;20.90;99.90;;;;;;4860153;29;20203;-88
2022/10/07 13:23:18;;;;;;;7.10;5.72;;;21.10;99.90;;;;;;4848316;29;20645;-88
2022/10/07 13:25:50;;;;;;;5.85;5.25;;;21.30;99.90;;;;;;4859205;29;20274;-88
2022/10/07 13:28:21;;;;;;;8.75;5.35;;;21.40;99.90;;;;;;4859223;29;20184;-88
2022/10/07 13:30:49;;;;;;;7.10;5.95;;;21.50;99.90;;;;;;4859136;29;20204;-88
2022/10/07 13:33:27;;;;;;;5.28;4.78;;;21.50;99.90;;;;;;4859366;29;20313;-88
2022/10/07 13:36:28;;;;;;;7.30;5.55;;;21.40;99.90;;;;;;4877336;29;20184;-88